Time;durP1;ratioP1;P1;durP2;ratioP2;P2;SDS_P1;SDS_P2;PMS_P1;PMS_P2;Temp;Humidity;BMP_temperature;BMP_pressure;BME280_temperature;BME280_humidity;BME280_pressure;Samples;Min_cycle;Max_cycle;Signal;HPM_P1;HPM_P2
2023/12/14 00:00:54;;;;;;;3.05;1.45;;;6.40;1.00;;;;;;5005608;28;20161;-73
2023/12/14 00:03:21;;;;;;;2.42;1.33;;;6.40;1.00;;;;;;5018470;28;20128;-73
2023/12/14 00:05:48;;;;;;;2.50;1.40;;;6.30;1.00;;;;;;5006557;28;20082;-73
2023/12/14 00:08:15;;;;;;;2.08;1.42;;;6.30;1.00;;;;;;5009238;28;20071;-73
2023/12/14 00:10:42;;;;;;;2.45;1.75;;;6.30;1.00;;;;;;5025534;28;20053;-73
2023/12/14 00:13:09;;;;;;;2.17;1.23;;;6.30;1.00;;;;;;5020760;28;20049;-73
2023/12/14 00:15:36;;;;;;;4.05;1.50;;;6.30;1.00;;;;;;5023525;28;20115;-72
2023/12/14 00:18:02;;;;;;;1.67;1.10;;;6.30;32.60;;;;;;5025447;28;20045;-73
2023/12/14 00:20:29;;;;;;;4.45;1.20;;;6.40;61.50;;;;;;5025748;28;20482;-73
2023/12/14 00:22:56;;;;;;;2.08;1.35;;;6.40;38.50;;;;;;5023660;28;20568;-73
2023/12/14 00:25:23;;;;;;;2.53;1.38;;;6.50;6.70;;;;;;5005230;28;20152;-72
2023/12/14 00:27:50;;;;;;;7.03;1.77;;;6.50;1.00;;;;;;5000786;28;20050;-73
2023/12/14 00:30:17;;;;;;;2.08;1.48;;;6.40;1.00;;;;;;5005992;28;20061;-73
2023/12/14 00:32:44;;;;;;;2.97;1.63;;;6.40;1.00;;;;;;5004321;28;20046;-73
2023/12/14 00:35:11;;;;;;;2.22;1.67;;;6.40;1.00;;;;;;5005993;28;20058;-73
2023/12/14 00:37:38;;;;;;;4.22;1.80;;;6.40;1.00;;;;;;5005166;28;20086;-73
2023/12/14 00:40:05;;;;;;;2.30;1.25;;;6.30;1.00;;;;;;5004666;28;20444;-73
2023/12/14 00:42:32;;;;;;;4.50;1.45;;;6.40;1.00;;;;;;5004339;28;20046;-73
2023/12/14 00:44:59;;;;;;;2.38;1.75;;;6.40;1.00;;;;;;5003770;28;20224;-73
2023/12/14 00:47:26;;;;;;;3.72;1.60;;;6.40;1.00;;;;;;5004179;28;20046;-73
2023/12/14 00:49:53;;;;;;;4.63;1.45;;;6.40;1.00;;;;;;5004891;28;20049;-73
2023/12/14 00:52:20;;;;;;;1.67;1.02;;;6.40;1.00;;;;;;5004859;28;20132;-73
2023/12/14 00:54:47;;;;;;;2.45;1.15;;;6.40;1.00;;;;;;5004458;28;20501;-73
2023/12/14 00:57:14;;;;;;;3.88;1.48;;;6.40;1.00;;;;;;5004614;28;20065;-73
2023/12/14 00:59:41;;;;;;;3.10;1.40;;;6.40;1.00;;;;;;5017729;28;20210;-73
2023/12/14 01:02:08;;;;;;;3.05;1.75;;;6.40;1.00;;;;;;5020352;28;20534;-73
2023/12/14 01:04:35;;;;;;;4.10;1.35;;;6.40;1.00;;;;;;5000929;28;20050;-73
2023/12/14 01:07:02;;;;;;;3.30;1.55;;;6.40;1.00;;;;;;5002519;28;20100;-72
2023/12/14 01:09:29;;;;;;;4.30;1.52;;;6.40;1.00;;;;;;5017649;28;20110;-73
2023/12/14 01:11:56;;;;;;;3.65;1.70;;;6.40;1.00;;;;;;5008782;28;20145;-73
2023/12/14 01:14:23;;;;;;;2.35;1.60;;;6.30;1.00;;;;;;5019238;28;20081;-74
2023/12/14 01:16:50;;;;;;;2.75;1.60;;;6.30;1.00;;;;;;5024572;28;20049;-73
2023/12/14 01:19:17;;;;;;;2.67;1.42;;;6.30;1.00;;;;;;5024110;28;20118;-73
2023/12/14 01:21:43;;;;;;;2.13;1.40;;;6.30;1.00;;;;;;5025274;28;20130;-73
2023/12/14 01:24:10;;;;;;;2.20;1.40;;;6.30;1.00;;;;;;5006360;28;20054;-73
2023/12/14 01:26:37;;;;;;;2.53;1.58;;;6.30;1.00;;;;;;5003621;28;20064;-74
2023/12/14 01:29:04;;;;;;;3.28;1.80;;;6.40;1.00;;;;;;5005438;28;20487;-73
2023/12/14 01:31:31;;;;;;;2.05;1.27;;;6.30;1.00;;;;;;5003112;28;20851;-73
2023/12/14 01:33:58;;;;;;;2.80;1.70;;;6.30;1.00;;;;;;5004254;28;20042;-74
2023/12/14 01:36:25;;;;;;;2.08;1.27;;;6.30;1.00;;;;;;5004124;28;20099;-73
2023/12/14 01:38:52;;;;;;;1.38;1.05;;;6.30;1.00;;;;;;5004318;28;20081;-74
2023/12/14 01:41:19;;;;;;;3.15;1.83;;;6.30;1.00;;;;;;4987247;28;20049;-74
2023/12/14 01:43:46;;;;;;;1.98;1.20;;;6.30;1.00;;;;;;5004289;28;20585;-73
2023/12/14 01:46:14;;;;;;;2.10;1.02;;;6.30;1.00;;;;;;5002682;28;20945;-73
2023/12/14 01:48:41;;;;;;;3.00;1.60;;;6.30;1.00;;;;;;5011227;28;20103;-74
2023/12/14 01:51:08;;;;;;;2.80;1.50;;;6.30;1.00;;;;;;5007241;28;20068;-73
2023/12/14 01:53:35;;;;;;;2.80;1.50;;;6.30;1.00;;;;;;5010716;28;20050;-74
2023/12/14 01:56:02;;;;;;;2.88;1.50;;;6.30;1.00;;;;;;5003175;28;20507;-73
2023/12/14 01:58:29;;;;;;;2.53;1.50;;;6.30;1.00;;;;;;5003013;28;20132;-73
2023/12/14 02:01:34;;;;;;;3.45;1.50;;;6.40;1.00;;;;;;5004383;28;20049;-73
2023/12/14 02:04:01;;;;;;;3.30;1.30;;;6.40;1.00;;;;;;5003155;28;20890;-73
2023/12/14 02:06:28;;;;;;;3.35;1.73;;;6.40;1.00;;;;;;5003112;28;20056;-73
2023/12/14 02:08:55;;;;;;;3.60;1.83;;;6.30;1.00;;;;;;5014103;28;20137;-73
2023/12/14 02:11:22;;;;;;;4.35;2.03;;;6.30;1.00;;;;;;5006585;28;20057;-73
2023/12/14 02:13:48;;;;;;;2.97;1.60;;;6.30;1.00;;;;;;5008481;28;20463;-73
2023/12/14 02:16:15;;;;;;;2.83;1.52;;;6.30;1.00;;;;;;5002022;28;20049;-73
2023/12/14 02:18:43;;;;;;;2.45;1.38;;;6.30;1.00;;;;;;5004837;28;20104;-74
2023/12/14 02:21:11;;;;;;;1.40;1.10;;;6.30;1.00;;;;;;5004526;28;20081;-73
2023/12/14 02:23:45;;;;;;;1.80;1.20;;;6.40;1.00;;;;;;5000441;28;20049;-73
2023/12/14 02:26:12;;;;;;;1.42;1.00;;;6.40;1.00;;;;;;4999818;28;20725;-73
2023/12/14 02:28:39;;;;;;;1.48;1.25;;;6.40;1.00;;;;;;4999722;28;20121;-73
2023/12/14 02:31:06;;;;;;;2.10;1.17;;;6.40;1.00;;;;;;5009343;28;20481;-74
2023/12/14 02:33:33;;;;;;;1.55;1.20;;;6.40;1.00;;;;;;5022531;28;20045;-73
2023/12/14 02:36:00;;;;;;;1.92;1.02;;;6.40;1.00;;;;;;5024481;28;20115;-73
2023/12/14 02:38:26;;;;;;;1.48;0.82;;;6.40;1.00;;;;;;5022701;28;20134;-73
2023/12/14 02:40:53;;;;;;;2.60;1.10;;;6.40;1.00;;;;;;5022534;28;20596;-73
2023/12/14 02:43:20;;;;;;;1.92;1.13;;;6.40;1.00;;;;;;5013939;28;20629;-73
2023/12/14 02:45:47;;;;;;;0.93;0.77;;;6.40;1.00;;;;;;5007559;28;20116;-73
2023/12/14 02:48:14;;;;;;;1.20;0.80;;;6.40;99.90;;;;;;5006665;28;20534;-73
2023/12/14 02:50:41;;;;;;;1.30;0.90;;;6.50;99.90;;;;;;4991303;28;20054;-74
2023/12/14 02:53:08;;;;;;;1.15;0.80;;;6.50;99.90;;;;;;5006845;28;20439;-72
2023/12/14 02:55:35;;;;;;;1.25;0.90;;;6.50;99.90;;;;;;5006928;28;20053;-72
2023/12/14 02:58:02;;;;;;;1.70;1.13;;;6.40;99.90;;;;;;4990676;28;20045;-73
2023/12/14 03:00:28;;;;;;;1.75;1.00;;;6.40;99.90;;;;;;5007993;28;20490;-73
2023/12/14 03:02:56;;;;;;;0.93;0.70;;;6.40;99.90;;;;;;5007171;28;20128;-73
2023/12/14 03:05:23;;;;;;;1.85;0.90;;;6.40;99.90;;;;;;4991191;28;20066;-72
2023/12/14 03:07:49;;;;;;;3.25;1.17;;;6.40;99.90;;;;;;5008160;28;20054;-72
2023/12/14 03:10:16;;;;;;;1.48;0.80;;;6.40;99.90;;;;;;5008285;28;20056;-73
2023/12/14 03:12:43;;;;;;;2.75;1.42;;;6.40;99.90;;;;;;5008075;28;20089;-73
2023/12/14 03:15:10;;;;;;;1.17;0.90;;;6.40;99.90;;;;;;4990528;28;20054;-72
2023/12/14 03:17:37;;;;;;;1.10;0.90;;;6.40;99.90;;;;;;5007351;28;20054;-73
2023/12/14 03:20:06;;;;;;;1.73;1.02;;;6.40;99.90;;;;;;5006462;28;20042;-73
2023/12/14 03:22:33;;;;;;;1.42;0.93;;;6.40;99.90;;;;;;5008182;28;20146;-73
2023/12/14 03:25:00;;;;;;;1.15;0.60;;;6.40;99.90;;;;;;5006494;28;20050;-72
2023/12/14 03:27:27;;;;;;;1.33;0.75;;;6.40;1.00;;;;;;5006153;28;20141;-72
2023/12/14 03:29:54;;;;;;;1.60;0.90;;;6.30;99.90;;;;;;5022927;28;20483;-72
2023/12/14 03:32:21;;;;;;;1.33;0.77;;;6.20;99.90;;;;;;5027188;28;20101;-73
2023/12/14 03:34:48;;;;;;;0.98;0.75;;;6.20;99.90;;;;;;5009624;28;20073;-73
2023/12/14 03:37:14;;;;;;;1.23;0.80;;;6.10;99.90;;;;;;5006415;28;20289;-73
2023/12/14 03:39:41;;;;;;;1.08;0.75;;;6.00;99.90;;;;;;5005852;28;20053;-73
2023/12/14 03:42:08;;;;;;;1.80;1.13;;;5.90;99.90;;;;;;5025925;28;20080;-73
2023/12/14 03:44:35;;;;;;;1.15;0.70;;;5.90;99.90;;;;;;5007118;28;20050;-73
2023/12/14 03:47:02;;;;;;;0.80;0.60;;;5.80;99.90;;;;;;5005977;28;20123;-73
2023/12/14 03:49:29;;;;;;;1.98;1.02;;;5.80;99.90;;;;;;5006386;28;20092;-73
2023/12/14 03:51:56;;;;;;;2.10;0.80;;;5.70;99.90;;;;;;5006470;28;20054;-73
2023/12/14 03:54:23;;;;;;;2.33;0.90;;;5.60;1.00;;;;;;5006245;28;20058;-73
2023/12/14 03:56:50;;;;;;;1.10;0.70;;;5.50;1.00;;;;;;5006396;28;20676;-73
2023/12/14 03:59:17;;;;;;;0.85;0.60;;;5.50;1.00;;;;;;5007136;28;20061;-73
2023/12/14 04:01:43;;;;;;;0.88;0.50;;;5.40;1.00;;;;;;5006124;28;20072;-72
2023/12/14 04:04:10;;;;;;;0.90;0.68;;;5.40;1.00;;;;;;4989630;28;20049;-73
2023/12/14 04:06:37;;;;;;;1.40;0.70;;;5.30;1.00;;;;;;4989910;28;20116;-73
2023/12/14 04:09:04;;;;;;;2.72;0.80;;;5.30;20.10;;;;;;5007485;28;20322;-73
2023/12/14 04:11:31;;;;;;;0.63;0.47;;;5.20;84.40;;;;;;5006719;28;20045;-73
2023/12/14 04:13:58;;;;;;;1.25;0.60;;;5.20;99.90;;;;;;5005307;28;20108;-73
2023/12/14 04:16:25;;;;;;;3.22;0.70;;;5.10;99.90;;;;;;4988382;28;20058;-73
2023/12/14 04:18:52;;;;;;;1.00;0.60;;;5.10;99.90;;;;;;5014212;28;20052;-73
2023/12/14 04:21:19;;;;;;;0.75;0.60;;;5.00;99.90;;;;;;5026316;28;20049;-73
2023/12/14 04:23:46;;;;;;;0.80;0.50;;;5.00;99.90;;;;;;5016336;28;20481;-73
2023/12/14 04:26:14;;;;;;;1.02;0.50;;;5.00;99.90;;;;;;5009306;28;20050;-73
2023/12/14 04:28:43;;;;;;;1.08;0.50;;;5.00;99.90;;;;;;5009119;28;20586;-73
2023/12/14 04:31:11;;;;;;;0.40;0.40;;;4.90;99.90;;;;;;5006991;28;20056;-73
2023/12/14 04:33:37;;;;;;;1.17;0.60;;;4.90;99.90;;;;;;5008351;28;20307;-73
2023/12/14 04:36:05;;;;;;;0.55;0.52;;;4.90;1.00;;;;;;5007817;28;20056;-73
2023/12/14 04:38:32;;;;;;;0.52;0.47;;;4.90;1.00;;;;;;5008350;28;20100;-73
2023/12/14 04:40:58;;;;;;;0.80;0.60;;;4.80;99.90;;;;;;5008190;28;20141;-73
2023/12/14 04:43:29;;;;;;;0.95;0.60;;;4.80;99.90;;;;;;4991952;28;20108;-73
2023/12/14 04:45:56;;;;;;;0.82;0.50;;;4.70;1.00;;;;;;5007318;28;20050;-73
2023/12/14 04:48:22;;;;;;;0.52;0.40;;;4.70;23.90;;;;;;5007387;28;20046;-72
2023/12/14 04:50:50;;;;;;;0.50;0.50;;;4.70;99.90;;;;;;5007991;28;20065;-73
2023/12/14 04:53:17;;;;;;;0.57;0.40;;;4.70;99.90;;;;;;5005937;28;20504;-73
2023/12/14 04:55:44;;;;;;;0.68;0.50;;;4.60;99.90;;;;;;5007588;28;20491;-73
2023/12/14 04:58:12;;;;;;;0.88;0.60;;;4.60;99.90;;;;;;5007503;28;20049;-73
2023/12/14 05:00:39;;;;;;;0.70;0.50;;;4.70;99.90;;;;;;5007412;28;20076;-73
2023/12/14 05:03:06;;;;;;;0.90;0.60;;;4.70;99.90;;;;;;5005262;28;20049;-73
2023/12/14 05:05:33;;;;;;;1.00;0.75;;;4.70;99.90;;;;;;5019402;28;20081;-73
2023/12/14 05:08:00;;;;;;;0.57;0.50;;;4.70;99.90;;;;;;5025140;28;20046;-73
2023/12/14 05:10:27;;;;;;;0.50;0.40;;;4.70;80.50;;;;;;5027229;28;20644;-73
2023/12/14 05:12:54;;;;;;;0.47;0.35;;;4.80;1.00;;;;;;5025158;28;20049;-72
2023/12/14 05:15:21;;;;;;;0.85;0.60;;;4.80;1.00;;;;;;5007213;28;20115;-73
2023/12/14 05:17:47;;;;;;;0.47;0.40;;;4.80;99.90;;;;;;4989192;28;20059;-73
2023/12/14 05:20:14;;;;;;;1.00;0.50;;;4.80;99.90;;;;;;5007926;28;20050;-73
2023/12/14 05:22:41;;;;;;;0.68;0.55;;;4.80;18.10;;;;;;4990285;28;20061;-73
2023/12/14 05:25:09;;;;;;;0.65;0.52;;;4.80;1.00;;;;;;5007004;28;20049;-73
2023/12/14 05:27:35;;;;;;;0.93;0.70;;;4.80;1.00;;;;;;5007291;28;20054;-73
2023/12/14 05:30:03;;;;;;;1.73;0.80;;;4.80;99.90;;;;;;5006753;28;20077;-72
2023/12/14 05:32:30;;;;;;;0.95;0.60;;;4.80;99.90;;;;;;5005809;28;20050;-73
2023/12/14 05:34:58;;;;;;;1.33;0.47;;;4.80;99.90;;;;;;5005480;28;20050;-73
2023/12/14 05:37:25;;;;;;;0.77;0.50;;;4.80;47.20;;;;;;5007473;28;20053;-73
2023/12/14 05:39:52;;;;;;;1.02;0.50;;;4.90;16.80;;;;;;5007149;28;20133;-73
2023/12/14 05:42:18;;;;;;;0.47;0.40;;;4.90;1.00;;;;;;5006996;28;20050;-73
2023/12/14 05:44:45;;;;;;;0.65;0.55;;;4.90;1.00;;;;;;5004896;28;20535;-73
2023/12/14 05:47:12;;;;;;;0.93;0.60;;;4.80;99.90;;;;;;5006452;28;20046;-73
2023/12/14 05:49:43;;;;;;;1.73;0.90;;;4.80;99.90;;;;;;5015017;28;20462;-73
2023/12/14 05:52:10;;;;;;;0.82;0.60;;;4.80;99.90;;;;;;5023978;28;20053;-73
2023/12/14 05:54:37;;;;;;;0.85;0.65;;;4.70;99.90;;;;;;5017050;28;20068;-72
2023/12/14 05:57:05;;;;;;;1.67;0.85;;;4.70;99.90;;;;;;5023574;28;20107;-72
2023/12/14 05:59:34;;;;;;;1.38;0.77;;;4.70;99.90;;;;;;5016935;28;20095;-72
2023/12/14 06:02:01;;;;;;;1.00;0.57;;;4.70;99.90;;;;;;5012890;28;20049;-74
2023/12/14 06:04:28;;;;;;;1.80;0.77;;;4.70;99.90;;;;;;5011696;28;20387;-73
2023/12/14 06:06:55;;;;;;;2.05;0.77;;;4.70;99.90;;;;;;5003589;28;20058;-72
2023/12/14 06:09:26;;;;;;;1.35;0.90;;;4.70;99.90;;;;;;4988960;28;20053;-75
2023/12/14 06:11:53;;;;;;;1.48;1.08;;;4.70;99.90;;;;;;5022410;28;20088;-74
2023/12/14 06:14:20;;;;;;;1.10;1.00;;;4.70;99.90;;;;;;5009035;28;20181;-74
2023/12/14 06:16:47;;;;;;;1.38;0.85;;;4.70;99.90;;;;;;5019156;28;20050;-74
2023/12/14 06:19:14;;;;;;;1.10;0.80;;;4.70;99.90;;;;;;5014388;28;20423;-74
2023/12/14 06:21:41;;;;;;;1.02;0.80;;;4.70;99.90;;;;;;4993236;28;20049;-74
2023/12/14 06:24:07;;;;;;;2.75;1.42;;;4.70;99.90;;;;;;4984422;28;20058;-74
2023/12/14 06:26:34;;;;;;;1.55;0.88;;;4.70;99.90;;;;;;5000818;28;20508;-74
2023/12/14 06:29:01;;;;;;;1.83;1.08;;;4.70;99.90;;;;;;5008641;28;20042;-74
2023/12/14 06:31:28;;;;;;;2.45;1.05;;;4.70;99.90;;;;;;5010680;28;20057;-75
2023/12/14 06:33:55;;;;;;;1.92;1.08;;;4.70;99.90;;;;;;5014873;28;20054;-74
2023/12/14 06:36:29;;;;;;;2.28;1.00;;;4.70;99.90;;;;;;5011776;28;20072;-72
2023/12/14 06:38:57;;;;;;;1.08;0.80;;;4.70;97.30;;;;;;5011905;28;20060;-74
2023/12/14 06:41:24;;;;;;;2.00;1.10;;;4.60;99.90;;;;;;5017537;28;20049;-72
2023/12/14 06:43:52;;;;;;;1.40;0.90;;;4.70;81.80;;;;;;5014855;28;20486;-72
2023/12/14 06:46:19;;;;;;;1.38;0.90;;;4.70;90.70;;;;;;5011808;28;20458;-74
2023/12/14 06:48:46;;;;;;;1.45;1.02;;;4.70;95.10;;;;;;5009719;28;20135;-74
2023/12/14 06:51:13;;;;;;;1.20;0.90;;;4.70;93.90;;;;;;4999488;28;20076;-75
2023/12/14 06:53:41;;;;;;;2.28;1.20;;;4.70;84.90;;;;;;5004884;28;20126;-74
2023/12/14 06:56:11;;;;;;;1.95;1.13;;;4.70;33.40;;;;;;5014406;28;20057;-74
2023/12/14 06:58:39;;;;;;;1.77;1.10;;;4.70;44.60;;;;;;4989700;28;20054;-74
2023/12/14 07:01:07;;;;;;;1.20;0.70;;;4.70;44.30;;;;;;5007545;28;20041;-74
2023/12/14 07:03:34;;;;;;;1.67;0.98;;;4.70;5.90;;;;;;5012467;28;20049;-75
2023/12/14 07:06:01;;;;;;;2.03;1.08;;;4.70;17.70;;;;;;5016688;28;20045;-74
2023/12/14 07:08:27;;;;;;;1.98;1.00;;;4.70;19.50;;;;;;5018409;28;20041;-74
2023/12/14 07:10:55;;;;;;;1.58;1.00;;;4.70;50.00;;;;;;5016927;28;20107;-80
2023/12/14 07:13:22;;;;;;;1.17;1.00;;;4.70;71.30;;;;;;5001594;28;20632;-74
2023/12/14 07:15:48;;;;;;;1.08;0.80;;;4.80;30.60;;;;;;4999313;28;20057;-75
2023/12/14 07:18:15;;;;;;;1.58;1.13;;;4.80;8.00;;;;;;4997232;28;20057;-74
2023/12/14 07:20:42;;;;;;;1.30;0.93;;;4.80;5.50;;;;;;5013393;28;20045;-74
2023/12/14 07:23:09;;;;;;;1.75;0.80;;;4.80;1.90;;;;;;5013402;28;20074;-74
2023/12/14 07:25:36;;;;;;;1.42;0.93;;;4.80;1.00;;;;;;5016813;28;20133;-74
2023/12/14 07:28:03;;;;;;;1.63;1.00;;;4.90;1.00;;;;;;5010444;28;20057;-74
2023/12/14 07:30:29;;;;;;;1.67;0.80;;;4.80;1.00;;;;;;5019082;28;20049;-74
2023/12/14 07:32:56;;;;;;;1.40;0.88;;;4.80;1.00;;;;;;5017965;28;20052;-74
2023/12/14 07:35:23;;;;;;;1.40;0.80;;;4.80;1.00;;;;;;5017697;28;20064;-74
2023/12/14 07:37:50;;;;;;;1.60;0.95;;;4.80;1.00;;;;;;5007892;28;20179;-74
2023/12/14 07:40:18;;;;;;;1.35;0.70;;;4.80;1.00;;;;;;5008065;28;20081;-74
2023/12/14 07:42:45;;;;;;;2.33;1.00;;;4.80;1.00;;;;;;5014206;28;20057;-74
2023/12/14 07:45:12;;;;;;;0.95;0.50;;;4.80;1.00;;;;;;5012936;28;20042;-75
2023/12/14 07:47:38;;;;;;;1.58;0.85;;;4.80;1.00;;;;;;5007746;28;20092;-73
2023/12/14 07:50:06;;;;;;;1.15;0.75;;;4.90;1.00;;;;;;5003383;28;20069;-74
2023/12/14 07:52:34;;;;;;;1.45;0.70;;;4.90;1.00;;;;;;5011478;28;20160;-74
2023/12/14 07:55:03;;;;;;;1.38;0.60;;;4.90;1.00;;;;;;5017039;28;20042;-74
2023/12/14 07:57:29;;;;;;;1.23;0.63;;;4.90;1.00;;;;;;5014318;28;20069;-73
2023/12/14 07:59:57;;;;;;;1.10;0.70;;;4.90;1.00;;;;;;5011715;28;20045;-74
2023/12/14 08:02:23;;;;;;;1.33;0.70;;;4.90;1.00;;;;;;5012585;28;20060;-74
2023/12/14 08:04:51;;;;;;;1.55;1.05;;;5.00;1.00;;;;;;5000223;28;20038;-74
2023/12/14 08:07:18;;;;;;;1.20;0.60;;;5.00;1.00;;;;;;5017306;28;20580;-74
2023/12/14 08:09:45;;;;;;;0.90;0.52;;;5.00;1.00;;;;;;4998093;28;20439;-74
2023/12/14 08:12:12;;;;;;;0.63;0.32;;;5.00;1.00;;;;;;5018940;28;20097;-74
2023/12/14 08:14:43;;;;;;;0.88;0.68;;;5.00;1.00;;;;;;5018817;28;20053;-74
2023/12/14 08:17:10;;;;;;;1.00;0.70;;;5.10;1.00;;;;;;5019046;28;20060;-75
2023/12/14 08:19:37;;;;;;;1.17;0.77;;;5.10;1.00;;;;;;5013640;28;20045;-75
2023/12/14 08:22:04;;;;;;;0.80;0.60;;;5.10;1.00;;;;;;5019159;28;20085;-76
2023/12/14 08:24:31;;;;;;;0.90;0.60;;;5.10;1.00;;;;;;5012482;28;20050;-76
2023/12/14 08:26:58;;;;;;;1.08;0.60;;;5.10;1.00;;;;;;5023130;28;20054;-76
2023/12/14 08:29:24;;;;;;;0.70;0.60;;;5.10;1.00;;;;;;5016880;28;20434;-75
2023/12/14 08:31:51;;;;;;;0.88;0.70;;;5.10;1.00;;;;;;5017539;28;20065;-78
2023/12/14 08:34:19;;;;;;;1.60;0.80;;;5.20;1.00;;;;;;4998949;28;20109;-77
2023/12/14 08:36:46;;;;;;;1.35;0.98;;;5.10;1.00;;;;;;5016079;28;20160;-77
2023/12/14 08:39:12;;;;;;;1.27;0.60;;;5.20;1.00;;;;;;4994037;28;20079;-77
2023/12/14 08:41:40;;;;;;;0.77;0.63;;;5.20;1.00;;;;;;5013847;28;20046;-78
2023/12/14 08:44:08;;;;;;;0.43;0.40;;;5.20;1.00;;;;;;5014123;28;20529;-76
2023/12/14 08:46:45;;;;;;;0.63;0.50;;;5.30;1.00;;;;;;5016110;28;20041;-76
2023/12/14 08:49:12;;;;;;;0.65;0.47;;;5.30;1.00;;;;;;5014396;28;20597;-76
2023/12/14 08:51:39;;;;;;;1.15;0.50;;;5.40;12.20;;;;;;5015051;28;20057;-76
2023/12/14 08:54:06;;;;;;;0.55;0.55;;;5.30;50.20;;;;;;5012681;28;20056;-76
2023/12/14 08:56:33;;;;;;;0.68;0.50;;;5.30;99.90;;;;;;5017499;28;20072;-76
2023/12/14 08:59:03;;;;;;;0.50;0.40;;;5.40;99.90;;;;;;5011447;28;20053;-76
2023/12/14 09:01:30;;;;;;;0.45;0.35;;;5.40;99.90;;;;;;4993312;28;20069;-76
2023/12/14 09:03:57;;;;;;;0.98;0.60;;;5.40;99.90;;;;;;5017380;28;20041;-78
2023/12/14 09:06:24;;;;;;;0.43;0.38;;;5.40;99.90;;;;;;5013807;28;20049;-75
2023/12/14 09:08:51;;;;;;;1.17;0.70;;;5.40;1.00;;;;;;5013560;28;20061;-75
2023/12/14 09:11:18;;;;;;;1.17;0.50;;;5.50;20.60;;;;;;4995821;28;20046;-76
2023/12/14 09:13:45;;;;;;;0.95;0.60;;;5.40;99.90;;;;;;4996251;28;20053;-76
2023/12/14 09:16:12;;;;;;;1.25;0.68;;;5.50;55.50;;;;;;4993617;28;20038;-76
2023/12/14 09:18:39;;;;;;;1.55;0.57;;;5.50;50.80;;;;;;4977626;28;20054;-76
2023/12/14 09:21:06;;;;;;;0.73;0.55;;;5.50;1.00;;;;;;5010131;28;20049;-76
2023/12/14 09:23:33;;;;;;;0.55;0.50;;;5.60;99.90;;;;;;4986391;28;20084;-75
2023/12/14 09:26:00;;;;;;;1.25;0.45;;;5.60;99.90;;;;;;4989931;28;20562;-76
2023/12/14 09:28:28;;;;;;;0.77;0.45;;;5.60;99.90;;;;;;5009157;28;20065;-76
2023/12/14 09:30:55;;;;;;;0.73;0.60;;;5.70;96.10;;;;;;5008913;28;20049;-76
2023/12/14 09:33:22;;;;;;;0.73;0.65;;;5.80;99.90;;;;;;4990896;28;20056;-76
2023/12/14 09:35:49;;;;;;;0.77;0.55;;;5.80;99.90;;;;;;4994248;28;22150;-76
2023/12/14 09:38:19;;;;;;;0.75;0.47;;;5.90;99.90;;;;;;4993563;28;20073;-73
2023/12/14 09:40:47;;;;;;;1.10;0.60;;;5.90;99.90;;;;;;5009059;28;20588;-73
2023/12/14 09:43:14;;;;;;;1.10;0.65;;;6.00;99.90;;;;;;5009037;28;20060;-73
2023/12/14 09:45:44;;;;;;;0.98;0.40;;;6.00;99.90;;;;;;5010631;28;20128;-73
2023/12/14 09:48:12;;;;;;;0.88;0.43;;;6.10;99.90;;;;;;4997557;28;20140;-74
2023/12/14 09:50:40;;;;;;;0.47;0.40;;;6.20;99.90;;;;;;5008845;28;20050;-73
2023/12/14 09:53:08;;;;;;;0.38;0.38;;;6.20;99.90;;;;;;5010006;28;20095;-72
2023/12/14 09:55:35;;;;;;;0.50;0.50;;;6.30;51.00;;;;;;5009546;28;20050;-72
2023/12/14 09:58:02;;;;;;;0.47;0.35;;;6.30;1.00;;;;;;5012347;28;20848;-73
2023/12/14 10:00:37;;;;;;;0.90;0.55;;;6.40;1.00;;;;;;5011031;28;20056;-73
2023/12/14 10:03:26;;;;;;;0.30;0.30;;;6.40;99.90;;;;;;5009915;28;20044;-73
2023/12/14 10:05:58;;;;;;;0.20;0.20;;;6.50;1.00;;;;;;5009443;28;20054;-73
2023/12/14 10:08:26;;;;;;;0.30;0.30;;;6.50;99.90;;;;;;4994409;28;20526;-73
2023/12/14 10:10:55;;;;;;;0.40;0.22;;;6.60;1.00;;;;;;5014367;28;20080;-74
2023/12/14 10:13:41;;;;;;;0.90;0.45;;;6.60;1.00;;;;;;5007889;28;20050;-73
2023/12/14 10:16:08;;;;;;;0.65;0.40;;;6.80;99.90;;;;;;5009975;28;20487;-73
2023/12/14 10:18:36;;;;;;;0.65;0.45;;;6.80;99.90;;;;;;5008946;28;20565;-73
2023/12/14 10:21:06;;;;;;;0.43;0.30;;;6.90;99.90;;;;;;4997297;28;20886;-73
2023/12/14 10:23:34;;;;;;;0.50;0.50;;;7.00;99.90;;;;;;5015164;28;20070;-74
2023/12/14 10:26:01;;;;;;;0.50;0.30;;;7.00;99.90;;;;;;5010693;28;20521;-74
2023/12/14 10:28:28;;;;;;;0.98;0.40;;;7.10;99.90;;;;;;4993297;28;20057;-74
2023/12/14 10:30:55;;;;;;;0.52;0.40;;;7.20;99.90;;;;;;4993999;28;20053;-74
2023/12/14 10:33:22;;;;;;;0.65;0.50;;;7.30;99.90;;;;;;5009732;28;20113;-74
2023/12/14 10:35:49;;;;;;;0.50;0.40;;;7.40;99.90;;;;;;5008688;28;20570;-73
2023/12/14 10:38:17;;;;;;;0.40;0.30;;;7.50;99.90;;;;;;5012541;28;20148;-73
2023/12/14 10:40:44;;;;;;;0.32;0.30;;;7.60;99.90;;;;;;5012169;28;20663;-73
2023/12/14 10:43:11;;;;;;;0.43;0.40;;;7.70;99.90;;;;;;5009059;28;20115;-73
2023/12/14 10:45:43;;;;;;;0.88;0.50;;;7.70;99.90;;;;;;4998395;28;20560;-73
2023/12/14 10:48:13;;;;;;;0.63;0.40;;;7.80;99.90;;;;;;4992094;28;20062;-73
2023/12/14 10:50:42;;;;;;;0.90;0.50;;;7.80;99.90;;;;;;5015554;28;20046;-73
2023/12/14 10:53:09;;;;;;;0.80;0.50;;;7.80;99.90;;;;;;5009054;28;20137;-73
2023/12/14 10:55:38;;;;;;;1.10;0.50;;;7.70;99.90;;;;;;5003041;28;20080;-73
2023/12/14 10:58:05;;;;;;;0.47;0.43;;;7.60;99.90;;;;;;4989840;28;20058;-74
2023/12/14 11:00:33;;;;;;;1.60;0.80;;;7.60;99.90;;;;;;5013109;28;20045;-74
2023/12/14 11:03:00;;;;;;;0.77;0.50;;;7.60;99.90;;;;;;5008197;28;20128;-74
2023/12/14 11:05:29;;;;;;;1.20;0.70;;;7.70;99.90;;;;;;5017123;28;20180;-73
2023/12/14 11:08:09;;;;;;;0.60;0.40;;;7.70;99.90;;;;;;5000053;28;20258;-73
2023/12/14 11:10:39;;;;;;;0.88;0.63;;;7.80;1.00;;;;;;4998331;28;20050;-73
2023/12/14 11:13:10;;;;;;;0.85;0.50;;;7.80;99.90;;;;;;5011983;28;20075;-75
2023/12/14 11:15:38;;;;;;;0.73;0.50;;;7.90;99.90;;;;;;5003255;28;20703;-75
2023/12/14 11:18:08;;;;;;;0.88;0.60;;;7.90;99.90;;;;;;5007374;28;20637;-76
2023/12/14 11:21:00;;;;;;;1.45;0.60;;;7.80;99.90;;;;;;5008173;28;20494;-75
2023/12/14 11:23:36;;;;;;;0.40;0.40;;;7.80;99.90;;;;;;5014565;28;20123;-75
2023/12/14 11:26:08;;;;;;;1.05;0.57;;;7.80;99.90;;;;;;4987754;28;20046;-75
2023/12/14 11:28:42;;;;;;;1.15;0.55;;;7.80;99.90;;;;;;5014599;28;20081;-75
2023/12/14 11:31:12;;;;;;;0.65;0.57;;;7.80;99.90;;;;;;4986631;28;20061;-75
2023/12/14 11:33:39;;;;;;;0.98;0.57;;;7.80;99.90;;;;;;4996204;28;20544;-76
2023/12/14 11:36:13;;;;;;;0.90;0.63;;;7.90;99.90;;;;;;5014392;28;20111;-75
2023/12/14 11:38:41;;;;;;;1.02;0.73;;;7.90;1.00;;;;;;5010088;28;20056;-75
2023/12/14 11:41:08;;;;;;;0.70;0.65;;;7.90;1.00;;;;;;5005608;28;20054;-76
2023/12/14 11:43:42;;;;;;;0.93;0.60;;;7.90;99.90;;;;;;5016392;28;20050;-76
2023/12/14 11:46:10;;;;;;;2.58;1.17;;;7.90;99.90;;;;;;5018513;28;20522;-76
2023/12/14 11:48:37;;;;;;;1.30;0.70;;;7.90;99.90;;;;;;5011372;28;20052;-76
2023/12/14 11:51:04;;;;;;;1.50;0.80;;;7.90;1.00;;;;;;5020384;28;20057;-76
2023/12/14 11:53:33;;;;;;;0.80;0.80;;;7.90;99.90;;;;;;5010129;28;20042;-77
2023/12/14 11:56:02;;;;;;;1.55;0.80;;;8.00;1.00;;;;;;4985621;28;20090;-77
2023/12/14 11:58:31;;;;;;;0.93;0.70;;;8.10;99.90;;;;;;5014082;28;20803;-76
2023/12/14 12:01:11;;;;;;;1.67;0.95;;;8.10;99.90;;;;;;4996675;28;20046;-76
2023/12/14 12:03:38;;;;;;;0.93;0.65;;;8.10;99.90;;;;;;5014019;28;20076;-76
2023/12/14 12:06:04;;;;;;;0.60;0.60;;;8.30;99.90;;;;;;5017463;28;20049;-77
2023/12/14 12:08:31;;;;;;;0.63;0.52;;;8.30;99.90;;;;;;4997421;28;20490;-77
2023/12/14 12:10:58;;;;;;;1.35;0.80;;;8.30;99.90;;;;;;5002001;28;20479;-76
2023/12/14 12:13:25;;;;;;;1.25;0.50;;;8.40;99.90;;;;;;4991113;28;20384;-77
2023/12/14 12:15:52;;;;;;;1.15;0.77;;;8.50;99.90;;;;;;5005376;28;20141;-76
2023/12/14 12:18:19;;;;;;;0.50;0.50;;;8.50;99.90;;;;;;5018846;28;20118;-77
2023/12/14 12:20:46;;;;;;;0.60;0.50;;;8.60;99.90;;;;;;5011655;28;20666;-77
2023/12/14 12:23:13;;;;;;;2.28;0.80;;;8.60;99.90;;;;;;4998679;28;20050;-77
2023/12/14 12:25:40;;;;;;;0.90;0.70;;;8.60;99.90;;;;;;5012043;28;20045;-77
2023/12/14 12:28:07;;;;;;;1.83;0.80;;;8.50;99.90;;;;;;4996339;28;20061;-76
2023/12/14 12:30:34;;;;;;;1.40;0.70;;;8.40;99.90;;;;;;5008581;28;20482;-77
2023/12/14 12:33:05;;;;;;;0.52;0.52;;;8.40;99.90;;;;;;5000929;28;20116;-76
2023/12/14 12:35:33;;;;;;;1.65;0.95;;;8.30;1.00;;;;;;5000291;28;20064;-75
2023/12/14 12:38:01;;;;;;;1.10;0.70;;;8.20;1.00;;;;;;5013984;28;20753;-75
2023/12/14 12:40:30;;;;;;;1.73;0.88;;;8.10;25.80;;;;;;4998232;28;20115;-75
2023/12/14 12:42:58;;;;;;;1.02;0.60;;;8.10;99.90;;;;;;5003307;28;20069;-74
2023/12/14 12:45:27;;;;;;;0.70;0.50;;;8.10;1.00;;;;;;5003163;28;20042;-74
2023/12/14 12:47:55;;;;;;;0.80;0.60;;;8.10;1.00;;;;;;5010648;28;20080;-74
2023/12/14 12:50:22;;;;;;;0.50;0.40;;;8.10;99.90;;;;;;5007590;28;20144;-75
2023/12/14 12:52:50;;;;;;;1.10;0.65;;;8.10;99.90;;;;;;5013469;28;20190;-75
2023/12/14 12:55:18;;;;;;;0.80;0.50;;;8.20;99.90;;;;;;5014671;28;20776;-75
2023/12/14 12:57:45;;;;;;;1.15;0.60;;;8.20;99.90;;;;;;5002748;28;20041;-75
2023/12/14 13:00:12;;;;;;;0.73;0.40;;;8.30;99.90;;;;;;4978420;28;20139;-75
2023/12/14 13:02:42;;;;;;;1.27;0.65;;;8.20;1.00;;;;;;5000948;28;20050;-74
2023/12/14 13:05:09;;;;;;;0.68;0.60;;;8.20;11.90;;;;;;5001175;28;20054;-74